Time,TemperatureF,DewpointF,PressureIn,WindDirection,WindDirectionDegrees,WindSpeedMPH,WindSpeedGustMPH,Humidity,HourlyPrecipIn,Conditions,Clouds,dailyrainin,SoftwareType,DateUTC
2013-05-11 00:02:00,53.0,46.0,30.06,North,4,0.0,3.0,77,0.00,,,0.00,,2013-05-11 05:02:00,
2013-05-11 00:12:00,53.0,46.0,30.04,North,4,1.0,2.0,77,0.00,,,0.00,,2013-05-11 05:12:00,
2013-05-11 00:21:00,53.0,46.0,30.04,North,4,1.0,2.0,77,0.00,,,0.00,,2013-05-11 05:21:00,
2013-05-11 00:32:00,53.0,46.0,30.05,North,4,0.0,1.0,77,0.00,,,0.00,,2013-05-11 05:32:00,
2013-05-11 00:42:00,52.0,45.0,30.05,North,4,0.0,1.0,78,0.00,,,0.00,,2013-05-11 05:42:00,
2013-05-11 00:52:00,52.0,45.0,30.05,North,4,0.0,1.0,78,0.00,,,0.00,,2013-05-11 05:52:00,
2013-05-11 01:02:00,52.0,46.0,30.05,North,4,0.0,1.0,80,0.00,,,0.00,,2013-05-11 06:02:00,
2013-05-11 01:12:00,52.0,46.0,30.05,North,4,0.0,1.0,80,0.00,,,0.00,,2013-05-11 06:12:00,
2013-05-11 01:21:00,52.0,46.0,30.05,North,4,0.0,1.0,80,0.00,,,0.00,,2013-05-11 06:21:00,
2013-05-11 01:32:00,52.0,46.0,30.03,North,4,0.0,0.0,81,0.00,,,0.00,,2013-05-11 06:32:00,
2013-05-11 01:42:00,52.0,47.0,30.05,North,4,0.0,1.0,82,0.00,,,0.00,,2013-05-11 06:42:00,
2013-05-11 01:52:00,52.0,47.0,30.05,North,4,0.0,1.0,82,0.00,,,0.00,,2013-05-11 06:52:00,
2013-05-11 02:01:00,51.0,46.0,30.06,North,4,1.0,2.0,82,0.00,,,0.00,,2013-05-11 07:01:00,
2013-05-11 02:11:00,51.0,46.0,30.04,North,4,1.0,1.0,82,0.00,,,0.00,,2013-05-11 07:11:00,
2013-05-11 02:21:00,51.0,46.0,30.04,North,4,1.0,1.0,82,0.00,,,0.00,,2013-05-11 07:21:00,
2013-05-11 02:32:00,51.0,46.0,30.04,North,4,0.0,1.0,82,0.00,,,0.00,,2013-05-11 07:32:00,
2013-05-11 02:42:00,50.0,45.0,30.05,North,4,0.0,2.0,83,0.00,,,0.00,,2013-05-11 07:42:00,
2013-05-11 02:52:00,50.0,45.0,30.05,North,4,0.0,2.0,83,0.00,,,0.00,,2013-05-11 07:52:00,
2013-05-11 03:01:00,51.0,46.0,30.06,North,4,0.0,2.0,83,0.00,,,0.00,,2013-05-11 08:01:00,
2013-05-11 03:12:00,50.0,45.0,30.05,North,0,1.0,2.0,83,0.00,,,0.00,,2013-05-11 08:12:00,
2013-05-11 03:21:00,50.0,45.0,30.05,North,0,1.0,2.0,83,0.00,,,0.00,,2013-05-11 08:21:00,
2013-05-11 03:31:00,50.0,45.0,30.06,NW,312,1.0,1.0,82,0.00,,,0.00,,2013-05-11 08:31:00,
2013-05-11 03:42:00,50.0,45.0,30.06,West,269,1.0,2.0,82,0.00,,,0.00,,2013-05-11 08:42:00,
2013-05-11 03:52:00,50.0,45.0,30.06,West,269,1.0,2.0,82,0.00,,,0.00,,2013-05-11 08:52:00,
2013-05-11 04:01:00,50.0,44.0,30.03,West,268,0.0,2.0,81,0.00,,,0.00,,2013-05-11 09:01:00,
2013-05-11 04:11:00,49.0,43.0,30.05,West,268,2.0,2.0,81,0.00,,,0.00,,2013-05-11 09:11:00,
2013-05-11 04:21:00,49.0,43.0,30.05,West,268,2.0,2.0,81,0.00,,,0.00,,2013-05-11 09:21:00,
2013-05-11 04:32:00,49.0,43.0,30.06,West,269,1.0,1.0,81,0.00,,,0.00,,2013-05-11 09:32:00,
2013-05-11 04:42:00,49.0,43.0,30.05,West,269,1.0,1.0,81,0.00,,,0.00,,2013-05-11 09:42:00,
2013-05-11 04:52:00,49.0,43.0,30.05,West,269,1.0,1.0,81,0.00,,,0.00,,2013-05-11 09:52:00,
2013-05-11 05:03:00,48.0,42.0,30.04,West,269,1.0,2.0,81,0.00,,,0.00,,2013-05-11 10:03:00,
2013-05-11 05:12:00,48.0,43.0,30.05,West,269,0.0,3.0,82,0.00,,,0.00,,2013-05-11 10:12:00,
2013-05-11 05:22:00,48.0,43.0,30.05,West,269,0.0,3.0,82,0.00,,,0.00,,2013-05-11 10:22:00,
2013-05-11 05:33:00,48.0,43.0,30.05,West,280,1.0,2.0,83,0.00,,,0.00,,2013-05-11 10:33:00,
2013-05-11 05:42:00,49.0,44.0,30.05,West,272,1.0,2.0,82,0.00,,,0.00,,2013-05-11 10:42:00,
2013-05-11 05:52:00,49.0,44.0,30.05,West,272,1.0,2.0,82,0.00,,,0.00,,2013-05-11 10:52:00,
2013-05-11 06:02:00,49.0,43.0,30.08,WNW,287,1.0,2.0,81,0.00,,,0.00,,2013-05-11 11:02:00,
2013-05-11 06:11:00,50.0,44.0,30.06,NNW,335,3.0,3.0,80,0.00,,,0.00,,2013-05-11 11:11:00,
2013-05-11 06:21:00,50.0,44.0,30.06,NNW,335,3.0,3.0,80,0.00,,,0.00,,2013-05-11 11:21:00,
2013-05-11 06:32:00,50.0,44.0,30.06,WNW,289,3.0,3.0,79,0.00,,,0.00,,2013-05-11 11:32:00,
2013-05-11 06:42:00,50.0,44.0,30.06,WNW,294,1.0,2.0,79,0.00,,,0.00,,2013-05-11 11:42:00,
2013-05-11 06:52:00,50.0,44.0,30.06,WNW,294,1.0,2.0,79,0.00,,,0.00,,2013-05-11 11:52:00,
2013-05-11 07:01:00,50.0,44.0,30.08,NNW,329,1.0,5.0,79,0.00,,,0.00,,2013-05-11 12:01:00,
2013-05-11 07:11:00,52.0,46.0,30.09,NW,320,7.0,8.0,79,0.00,,,0.00,,2013-05-11 12:11:00,
2013-05-11 07:21:00,52.0,46.0,30.09,NW,320,7.0,8.0,79,0.00,,,0.00,,2013-05-11 12:21:00,
2013-05-11 07:32:00,53.0,46.0,30.10,NW,312,7.0,14.0,77,0.00,,,0.00,,2013-05-11 12:32:00,
2013-05-11 07:42:00,53.0,46.0,30.11,NW,312,9.0,13.0,76,0.00,,,0.00,,2013-05-11 12:42:00,
2013-05-11 07:52:00,53.0,46.0,30.11,NW,312,9.0,13.0,76,0.00,,,0.00,,2013-05-11 12:52:00,
2013-05-11 08:01:00,56.0,44.0,30.10,NW,319,5.0,19.0,64,0.00,,,0.00,,2013-05-11 13:01:00,
2013-05-11 08:11:00,57.0,43.0,30.11,NNE,17,8.0,16.0,60,0.00,,,0.00,,2013-05-11 13:11:00,
2013-05-11 08:21:00,57.0,43.0,30.11,NNE,17,8.0,16.0,60,0.00,,,0.00,,2013-05-11 13:21:00,
2013-05-11 08:32:00,58.0,43.0,30.14,NNW,331,4.0,14.0,58,0.00,,,0.00,,2013-05-11 13:32:00,
2013-05-11 08:41:00,59.0,42.0,30.14,NNW,331,5.0,11.0,53,0.00,,,0.00,,2013-05-11 13:41:00,
2013-05-11 08:52:00,59.0,42.0,30.14,NNW,331,5.0,11.0,53,0.00,,,0.00,,2013-05-11 13:52:00,
2013-05-11 09:02:00,60.0,40.0,30.14,NNW,343,9.0,16.0,48,0.00,,,0.00,,2013-05-11 14:02:00,
2013-05-11 09:11:00,59.0,37.0,30.14,North,359,10.0,20.0,43,0.00,,,0.00,,2013-05-11 14:11:00,
2013-05-11 09:21:00,59.0,37.0,30.14,North,359,10.0,20.0,43,0.00,,,0.00,,2013-05-11 14:21:00,
2013-05-11 09:32:00,59.0,33.0,30.15,NNE,17,13.0,27.0,37,0.00,,,0.00,,2013-05-11 14:32:00,
2013-05-11 09:41:00,59.0,31.0,30.16,North,2,10.0,19.0,35,0.00,,,0.00,,2013-05-11 14:41:00,
2013-05-11 09:52:00,59.0,31.0,30.16,North,2,10.0,19.0,35,0.00,,,0.00,,2013-05-11 14:52:00,
2013-05-11 10:01:00,59.0,28.0,30.16,NNE,12,12.0,25.0,31,0.00,,,0.00,,2013-05-11 15:01:00,
2013-05-11 10:11:00,59.0,30.0,30.17,NNW,348,6.0,19.0,33,0.00,,,0.00,,2013-05-11 15:11:00,
2013-05-11 10:21:00,59.0,30.0,30.17,NNW,348,6.0,19.0,33,0.00,,,0.00,,2013-05-11 15:21:00,
2013-05-11 10:32:00,60.0,28.0,30.18,NNE,12,19.0,30.0,29,0.00,,,0.00,,2013-05-11 15:32:00,
2013-05-11 10:43:00,59.0,29.0,30.17,North,9,21.0,26.0,32,0.00,,,0.00,,2013-05-11 15:43:00,
2013-05-11 10:53:00,59.0,29.0,30.17,North,9,21.0,26.0,32,0.00,,,0.00,,2013-05-11 15:53:00,
2013-05-11 11:02:00,61.0,29.0,30.20,North,2,10.0,28.0,30,0.00,,,0.00,,2013-05-11 16:02:00,
2013-05-11 11:12:00,61.0,31.0,30.20,North,7,10.0,16.0,32,0.00,,,0.00,,2013-05-11 16:12:00,
2013-05-11 11:22:00,61.0,31.0,30.20,North,7,10.0,16.0,32,0.00,,,0.00,,2013-05-11 16:22:00,
2013-05-11 11:33:00,62.0,33.0,30.21,NNW,328,2.0,17.0,33,0.00,,,0.00,,2013-05-11 16:33:00,
2013-05-11 11:42:00,61.0,30.0,30.19,North,8,18.0,25.0,31,0.00,,,0.00,,2013-05-11 16:42:00,
2013-05-11 11:53:00,61.0,30.0,30.19,North,8,18.0,25.0,31,0.00,,,0.00,,2013-05-11 16:53:00,
2013-05-11 12:02:00,62.0,32.0,30.20,North,356,7.0,18.0,32,0.00,,,0.00,,2013-05-11 17:02:00,
2013-05-11 12:12:00,61.0,32.0,30.20,North,9,21.0,22.0,33,0.00,,,0.00,,2013-05-11 17:12:00,
2013-05-11 12:22:00,61.0,32.0,30.20,North,9,21.0,22.0,33,0.00,,,0.00,,2013-05-11 17:22:00,
2013-05-11 12:31:00,63.0,33.0,30.19,North,6,11.0,17.0,32,0.00,,,0.00,,2013-05-11 17:31:00,
2013-05-11 12:41:00,64.0,31.0,30.20,NNW,335,9.0,16.0,29,0.00,,,0.00,,2013-05-11 17:41:00,
2013-05-11 12:52:00,64.0,31.0,30.20,NNW,335,9.0,16.0,29,0.00,,,0.00,,2013-05-11 17:52:00,
2013-05-11 13:01:00,63.0,29.0,30.21,NW,324,6.0,26.0,28,0.00,,,0.00,,2013-05-11 18:01:00,
2013-05-11 13:11:00,64.0,33.0,30.20,North,356,4.0,16.0,31,0.00,,,0.00,,2013-05-11 18:11:00,
2013-05-11 13:21:00,64.0,33.0,30.20,North,356,4.0,16.0,31,0.00,,,0.00,,2013-05-11 18:21:00,
2013-05-11 13:32:00,62.0,30.0,30.20,West,269,3.0,14.0,30,0.00,,,0.00,,2013-05-11 18:32:00,
2013-05-11 13:41:00,64.0,30.0,30.20,NNE,23,14.0,17.0,28,0.00,,,0.00,,2013-05-11 18:41:00,
2013-05-11 13:52:00,64.0,30.0,30.20,NNE,23,14.0,17.0,28,0.00,,,0.00,,2013-05-11 18:52:00,
2013-05-11 14:02:00,63.0,31.0,30.19,NNW,333,17.0,17.0,30,0.00,,,0.00,,2013-05-11 19:02:00,
2013-05-11 14:11:00,64.0,29.0,30.19,North,353,5.0,16.0,27,0.00,,,0.00,,2013-05-11 19:11:00,
2013-05-11 14:21:00,64.0,29.0,30.19,North,353,5.0,16.0,27,0.00,,,0.00,,2013-05-11 19:21:00,
2013-05-11 14:32:00,63.0,29.0,30.20,NNW,340,14.0,17.0,28,0.00,,,0.00,,2013-05-11 19:32:00,
2013-05-11 14:41:00,65.0,34.0,30.20,WNW,297,12.0,12.0,32,0.00,,,0.00,,2013-05-11 19:41:00,
2013-05-11 14:52:00,65.0,34.0,30.20,WNW,297,12.0,12.0,32,0.00,,,0.00,,2013-05-11 19:52:00,
2013-05-11 15:01:00,64.0,29.0,30.20,NNW,345,5.0,17.0,27,0.00,,,0.00,,2013-05-11 20:01:00,
2013-05-11 15:12:00,64.0,29.0,30.20,NW,322,18.0,18.0,27,0.00,,,0.00,,2013-05-11 20:12:00,
2013-05-11 15:22:00,64.0,29.0,30.20,NW,322,18.0,18.0,27,0.00,,,0.00,,2013-05-11 20:22:00,
2013-05-11 15:32:00,64.0,27.0,30.21,NNW,338,4.0,13.0,25,0.00,,,0.00,,2013-05-11 20:32:00,
2013-05-11 15:42:00,64.0,29.0,30.20,NE,48,4.0,17.0,27,0.00,,,0.00,,2013-05-11 20:42:00,
2013-05-11 15:52:00,64.0,29.0,30.20,NE,48,4.0,17.0,27,0.00,,,0.00,,2013-05-11 20:52:00,
2013-05-11 16:02:00,63.0,28.0,30.19,North,9,16.0,22.0,26,0.00,,,0.00,,2013-05-11 21:02:00,
2013-05-11 16:11:00,63.0,27.0,30.20,North,7,12.0,26.0,25,0.00,,,0.00,,2013-05-11 21:11:00,
2013-05-11 16:21:00,63.0,27.0,30.20,North,7,12.0,26.0,25,0.00,,,0.00,,2013-05-11 21:21:00,
2013-05-11 16:33:00,63.0,27.0,30.17,SSW,207,5.0,18.0,25,0.00,,,0.00,,2013-05-11 21:33:00,
2013-05-11 16:43:00,63.0,27.0,30.17,SSW,207,5.0,18.0,25,0.00,,,0.00,,2013-05-11 21:43:00,
2013-05-11 16:53:00,63.0,28.0,30.19,NNW,347,8.0,28.0,26,0.00,,,0.00,,2013-05-11 21:53:00,
2013-05-11 17:02:00,63.0,28.0,30.19,North,10,5.0,14.0,26,0.00,,,0.00,,2013-05-11 22:02:00,
2013-05-11 17:13:00,62.0,28.0,30.19,NNW,338,5.0,12.0,27,0.00,,,0.00,,2013-05-11 22:13:00,
2013-05-11 17:23:00,62.0,28.0,30.19,NNW,338,5.0,12.0,27,0.00,,,0.00,,2013-05-11 22:23:00,
2013-05-11 17:33:00,62.0,28.0,30.17,NNE,24,9.0,17.0,27,0.00,,,0.00,,2013-05-11 22:33:00,
2013-05-11 17:42:00,62.0,27.0,30.18,North,0,3.0,11.0,26,0.00,,,0.00,,2013-05-11 22:42:00,
2013-05-11 17:52:00,62.0,27.0,30.18,North,0,3.0,11.0,26,0.00,,,0.00,,2013-05-11 22:52:00,
2013-05-11 18:02:00,61.0,27.0,30.19,NNW,334,8.0,15.0,27,0.00,,,0.00,,2013-05-11 23:02:00,
2013-05-11 18:12:00,61.0,26.0,30.18,NNW,346,4.0,9.0,26,0.00,,,0.00,,2013-05-11 23:12:00,
2013-05-11 18:22:00,61.0,26.0,30.18,NNW,346,4.0,9.0,26,0.00,,,0.00,,2013-05-11 23:22:00,
2013-05-11 18:32:00,61.0,25.0,30.20,NNW,347,8.0,9.0,25,0.00,,,0.00,,2013-05-11 23:32:00,
2013-05-11 18:42:00,60.0,24.0,30.18,NNW,327,7.0,12.0,25,0.00,,,0.00,,2013-05-11 23:42:00,
2013-05-11 18:52:00,60.0,24.0,30.18,NNW,327,7.0,12.0,25,0.00,,,0.00,,2013-05-11 23:52:00,
2013-05-11 19:01:00,60.0,24.0,30.19,North,9,6.0,12.0,25,0.00,,,0.00,,2013-05-12 00:01:00,
2013-05-11 19:11:00,59.0,24.0,30.19,NW,315,3.0,8.0,26,0.00,,,0.00,,2013-05-12 00:11:00,
2013-05-11 19:21:00,59.0,24.0,30.19,NW,315,3.0,8.0,26,0.00,,,0.00,,2013-05-12 00:21:00,
2013-05-11 19:32:00,59.0,24.0,30.18,North,359,4.0,8.0,26,0.00,,,0.00,,2013-05-12 00:32:00,
2013-05-11 19:42:00,58.0,24.0,30.20,North,359,14.0,18.0,27,0.00,,,0.00,,2013-05-12 00:42:00,
2013-05-11 19:52:00,58.0,24.0,30.20,North,359,14.0,18.0,27,0.00,,,0.00,,2013-05-12 00:52:00,
2013-05-11 20:01:00,57.0,24.0,30.19,NNW,346,2.0,7.0,28,0.00,,,0.00,,2013-05-12 01:01:00,
2013-05-11 20:11:00,57.0,24.0,30.20,North,7,4.0,9.0,28,0.00,,,0.00,,2013-05-12 01:11:00,
2013-05-11 20:21:00,57.0,24.0,30.20,North,7,4.0,9.0,28,0.00,,,0.00,,2013-05-12 01:21:00,
2013-05-11 20:32:00,56.0,24.0,30.20,NNW,345,3.0,6.0,29,0.00,,,0.00,,2013-05-12 01:32:00,
2013-05-11 20:41:00,55.0,25.0,30.20,North,357,5.0,6.0,31,0.00,,,0.00,,2013-05-12 01:41:00,
2013-05-11 20:52:00,55.0,25.0,30.20,North,357,5.0,6.0,31,0.00,,,0.00,,2013-05-12 01:52:00,
2013-05-11 21:01:00,54.0,26.0,30.21,North,3,4.0,10.0,33,0.00,,,0.00,,2013-05-12 02:01:00,
2013-05-11 21:11:00,53.0,25.0,30.21,North,8,3.0,7.0,33,0.00,,,0.00,,2013-05-12 02:11:00,
2013-05-11 21:22:00,53.0,25.0,30.21,North,8,3.0,7.0,33,0.00,,,0.00,,2013-05-12 02:22:00,
2013-05-11 21:31:00,53.0,26.0,30.23,North,0,4.0,5.0,35,0.00,,,0.00,,2013-05-12 02:31:00,
2013-05-11 21:42:00,52.0,26.0,30.23,North,0,3.0,5.0,36,0.00,,,0.00,,2013-05-12 02:42:00,
2013-05-11 21:52:00,52.0,26.0,30.23,North,0,3.0,5.0,36,0.00,,,0.00,,2013-05-12 02:52:00,
2013-05-11 22:01:00,52.0,27.0,30.23,North,0,1.0,4.0,37,0.00,,,0.00,,2013-05-12 03:01:00,
2013-05-11 22:11:00,51.0,26.0,30.24,NNE,20,3.0,4.0,37,0.00,,,0.00,,2013-05-12 03:11:00,
2013-05-11 22:22:00,51.0,26.0,30.24,NNE,20,3.0,4.0,37,0.00,,,0.00,,2013-05-12 03:22:00,
2013-05-11 22:32:00,50.0,24.0,30.24,North,0,3.0,5.0,36,0.00,,,0.00,,2013-05-12 03:32:00,
2013-05-11 22:42:00,50.0,24.0,30.24,NNW,348,2.0,4.0,36,0.00,,,0.00,,2013-05-12 03:42:00,
2013-05-11 22:53:00,50.0,24.0,30.24,NNW,348,2.0,4.0,36,0.00,,,0.00,,2013-05-12 03:53:00,
2013-05-11 23:02:00,-999.0,-99.9,30.24,NNW,348,0.0,1.0,37,0.00,,,0.00,,2013-05-12 04:02:00,
2013-05-11 23:12:00,48.0,25.0,30.25,NNW,348,1.0,2.0,40,0.00,,,0.00,,2013-05-12 04:12:00,
2013-05-11 23:22:00,48.0,25.0,30.25,NNW,348,1.0,2.0,40,0.00,,,0.00,,2013-05-12 04:22:00,
2013-05-11 23:33:00,47.0,26.0,30.24,NNW,348,0.0,1.0,44,0.00,,,0.00,,2013-05-12 04:33:00,
2013-05-11 23:43:00,45.0,26.0,30.24,NNW,348,1.0,2.0,47,0.00,,,0.00,,2013-05-12 04:43:00,
2013-05-11 23:52:00,45.0,26.0,30.24,NNW,348,1.0,2.0,47,0.00,,,0.00,,2013-05-12 04:52:00,